sensor_id;sensor_type;location;lat;lon;timestamp;temperature;humidity
69546;SHT31;56766;52.260;20.746;2023-07-29T00:00:57;16.88;86.48
69546;SHT31;56766;52.260;20.746;2023-07-29T00:03:27;16.85;86.49
69546;SHT31;56766;52.260;20.746;2023-07-29T00:05:55;16.83;86.51
69546;SHT31;56766;52.260;20.746;2023-07-29T00:08:21;16.80;86.62
69546;SHT31;56766;52.260;20.746;2023-07-29T00:10:47;16.78;86.68
69546;SHT31;56766;52.260;20.746;2023-07-29T00:13:14;16.74;86.72
69546;SHT31;56766;52.260;20.746;2023-07-29T00:15:40;16.71;86.84
69546;SHT31;56766;52.260;20.746;2023-07-29T00:18:06;16.69;86.81
69546;SHT31;56766;52.260;20.746;2023-07-29T00:20:32;16.66;86.89
69546;SHT31;56766;52.260;20.746;2023-07-29T00:22:58;16.65;86.85
69546;SHT31;56766;52.260;20.746;2023-07-29T00:25:24;16.64;86.84
69546;SHT31;56766;52.260;20.746;2023-07-29T00:27:50;16.64;86.88
69546;SHT31;56766;52.260;20.746;2023-07-29T00:30:17;16.63;87.03
69546;SHT31;56766;52.260;20.746;2023-07-29T00:32:43;16.63;87.09
69546;SHT31;56766;52.260;20.746;2023-07-29T00:35:09;16.63;87.11
69546;SHT31;56766;52.260;20.746;2023-07-29T00:37:35;16.63;87.09
69546;SHT31;56766;52.260;20.746;2023-07-29T00:40:25;16.63;86.94
69546;SHT31;56766;52.260;20.746;2023-07-29T00:42:53;16.65;86.90
69546;SHT31;56766;52.260;20.746;2023-07-29T00:45:19;16.67;86.89
69546;SHT31;56766;52.260;20.746;2023-07-29T00:47:46;16.69;87.01
69546;SHT31;56766;52.260;20.746;2023-07-29T00:50:14;16.71;87.36
69546;SHT31;56766;52.260;20.746;2023-07-29T00:52:41;16.74;87.49
69546;SHT31;56766;52.260;20.746;2023-07-29T00:55:09;16.77;87.38
69546;SHT31;56766;52.260;20.746;2023-07-29T00:57:35;16.81;87.38
69546;SHT31;56766;52.260;20.746;2023-07-29T01:00:01;16.84;87.51
69546;SHT31;56766;52.260;20.746;2023-07-29T01:02:28;16.87;87.51
69546;SHT31;56766;52.260;20.746;2023-07-29T01:04:57;16.89;87.42
69546;SHT31;56766;52.260;20.746;2023-07-29T01:07:45;16.92;87.38
69546;SHT31;56766;52.260;20.746;2023-07-29T01:16:31;17.02;87.14
69546;SHT31;56766;52.260;20.746;2023-07-29T01:19:06;17.04;87.23
69546;SHT31;56766;52.260;20.746;2023-07-29T01:21:35;17.07;87.33
69546;SHT31;56766;52.260;20.746;2023-07-29T01:24:02;17.08;87.49
69546;SHT31;56766;52.260;20.746;2023-07-29T01:26:29;17.08;87.59
69546;SHT31;56766;52.260;20.746;2023-07-29T01:28:56;17.09;87.57
69546;SHT31;56766;52.260;20.746;2023-07-29T01:31:41;17.10;87.60
69546;SHT31;56766;52.260;20.746;2023-07-29T01:34:21;17.09;87.74
69546;SHT31;56766;52.260;20.746;2023-07-29T01:36:54;17.10;87.80
69546;SHT31;56766;52.260;20.746;2023-07-29T01:39:27;17.11;87.81
69546;SHT31;56766;52.260;20.746;2023-07-29T01:41:58;17.11;87.82
69546;SHT31;56766;52.260;20.746;2023-07-29T01:44:26;17.12;87.83
69546;SHT31;56766;52.260;20.746;2023-07-29T01:46:55;17.11;87.80
69546;SHT31;56766;52.260;20.746;2023-07-29T01:49:22;17.11;87.88
69546;SHT31;56766;52.260;20.746;2023-07-29T01:51:48;17.09;87.90
69546;SHT31;56766;52.260;20.746;2023-07-29T01:54:14;17.07;87.91
69546;SHT31;56766;52.260;20.746;2023-07-29T01:56:41;17.04;87.96
69546;SHT31;56766;52.260;20.746;2023-07-29T01:59:07;17.02;87.95
69546;SHT31;56766;52.260;20.746;2023-07-29T02:01:35;17.03;87.93
69546;SHT31;56766;52.260;20.746;2023-07-29T02:04:01;17.02;87.81
69546;SHT31;56766;52.260;20.746;2023-07-29T02:06:27;17.02;87.76
69546;SHT31;56766;52.260;20.746;2023-07-29T02:08:54;17.00;87.72
69546;SHT31;56766;52.260;20.746;2023-07-29T02:11:24;16.99;87.68
69546;SHT31;56766;52.260;20.746;2023-07-29T02:13:56;16.95;87.67
69546;SHT31;56766;52.260;20.746;2023-07-29T02:16:23;16.94;87.63
69546;SHT31;56766;52.260;20.746;2023-07-29T02:18:49;16.93;87.59
69546;SHT31;56766;52.260;20.746;2023-07-29T02:21:16;16.91;87.50
69546;SHT31;56766;52.260;20.746;2023-07-29T02:23:42;16.92;87.46
69546;SHT31;56766;52.260;20.746;2023-07-29T02:26:08;16.90;87.37
69546;SHT31;56766;52.260;20.746;2023-07-29T02:28:34;16.86;87.30
69546;SHT31;56766;52.260;20.746;2023-07-29T02:31:21;16.84;87.23
69546;SHT31;56766;52.260;20.746;2023-07-29T02:33:49;16.81;87.20
69546;SHT31;56766;52.260;20.746;2023-07-29T02:36:16;16.78;87.11
69546;SHT31;56766;52.260;20.746;2023-07-29T02:38:43;16.73;87.05
69546;SHT31;56766;52.260;20.746;2023-07-29T02:41:10;16.70;87.00
69546;SHT31;56766;52.260;20.746;2023-07-29T02:43:39;16.66;86.96
69546;SHT31;56766;52.260;20.746;2023-07-29T02:46:06;16.63;86.91
69546;SHT31;56766;52.260;20.746;2023-07-29T02:48:33;16.58;86.94
69546;SHT31;56766;52.260;20.746;2023-07-29T02:50:59;16.56;86.93
69546;SHT31;56766;52.260;20.746;2023-07-29T02:53:26;16.54;86.90
69546;SHT31;56766;52.260;20.746;2023-07-29T02:55:52;16.53;86.90
69546;SHT31;56766;52.260;20.746;2023-07-29T02:58:18;16.51;86.82
69546;SHT31;56766;52.260;20.746;2023-07-29T03:00:45;16.50;86.80
69546;SHT31;56766;52.260;20.746;2023-07-29T03:03:13;16.47;86.81
69546;SHT31;56766;52.260;20.746;2023-07-29T03:05:39;16.44;86.80
69546;SHT31;56766;52.260;20.746;2023-07-29T03:08:07;16.41;86.80
69546;SHT31;56766;52.260;20.746;2023-07-29T03:10:35;16.40;86.80
69546;SHT31;56766;52.260;20.746;2023-07-29T03:13:01;16.42;86.80
69546;SHT31;56766;52.260;20.746;2023-07-29T03:15:28;16.44;86.75
69546;SHT31;56766;52.260;20.746;2023-07-29T03:17:54;16.45;86.71
69546;SHT31;56766;52.260;20.746;2023-07-29T03:20:20;16.47;86.70
69546;SHT31;56766;52.260;20.746;2023-07-29T03:22:48;16.51;86.70
69546;SHT31;56766;52.260;20.746;2023-07-29T03:25:14;16.55;86.60
69546;SHT31;56766;52.260;20.746;2023-07-29T03:27:40;16.59;86.49
69546;SHT31;56766;52.260;20.746;2023-07-29T03:30:06;16.62;86.41
69546;SHT31;56766;52.260;20.746;2023-07-29T03:32:33;16.63;86.30
69546;SHT31;56766;52.260;20.746;2023-07-29T03:34:59;16.63;86.30
69546;SHT31;56766;52.260;20.746;2023-07-29T03:37:25;16.66;86.29
69546;SHT31;56766;52.260;20.746;2023-07-29T03:39:51;16.66;86.27
69546;SHT31;56766;52.260;20.746;2023-07-29T03:42:18;16.70;86.20
69546;SHT31;56766;52.260;20.746;2023-07-29T03:44:44;16.71;86.13
69546;SHT31;56766;52.260;20.746;2023-07-29T03:47:10;16.72;86.09
69546;SHT31;56766;52.260;20.746;2023-07-29T03:49:36;16.70;85.94
69546;SHT31;56766;52.260;20.746;2023-07-29T03:52:02;16.70;86.00
69546;SHT31;56766;52.260;20.746;2023-07-29T03:54:28;16.72;86.07
69546;SHT31;56766;52.260;20.746;2023-07-29T03:56:54;16.75;85.99
69546;SHT31;56766;52.260;20.746;2023-07-29T03:59:20;16.82;85.95
69546;SHT31;56766;52.260;20.746;2023-07-29T04:01:48;16.90;85.79
69546;SHT31;56766;52.260;20.746;2023-07-29T04:04:14;16.95;85.67
69546;SHT31;56766;52.260;20.746;2023-07-29T04:06:40;16.97;85.58
69546;SHT31;56766;52.260;20.746;2023-07-29T04:09:06;17.04;85.69
69546;SHT31;56766;52.260;20.746;2023-07-29T04:11:32;17.13;85.51
69546;SHT31;56766;52.260;20.746;2023-07-29T04:13:59;17.17;85.30
69546;SHT31;56766;52.260;20.746;2023-07-29T04:16:25;17.20;85.27
69546;SHT31;56766;52.260;20.746;2023-07-29T04:18:51;17.28;85.25
69546;SHT31;56766;52.260;20.746;2023-07-29T04:21:17;17.37;85.10
69546;SHT31;56766;52.260;20.746;2023-07-29T04:23:43;17.43;84.81
69546;SHT31;56766;52.260;20.746;2023-07-29T04:26:09;17.46;84.70
69546;SHT31;56766;52.260;20.746;2023-07-29T04:28:35;17.50;84.54
69546;SHT31;56766;52.260;20.746;2023-07-29T04:31:01;17.54;84.54
69546;SHT31;56766;52.260;20.746;2023-07-29T04:33:27;17.62;84.44
69546;SHT31;56766;52.260;20.746;2023-07-29T04:35:54;17.65;84.24
69546;SHT31;56766;52.260;20.746;2023-07-29T04:38:20;17.67;84.26
69546;SHT31;56766;52.260;20.746;2023-07-29T04:40:49;17.68;84.00
69546;SHT31;56766;52.260;20.746;2023-07-29T04:43:15;17.68;84.05
69546;SHT31;56766;52.260;20.746;2023-07-29T04:45:44;17.74;84.14
69546;SHT31;56766;52.260;20.746;2023-07-29T04:48:12;17.83;84.04
69546;SHT31;56766;52.260;20.746;2023-07-29T04:50:38;17.91;84.00
69546;SHT31;56766;52.260;20.746;2023-07-29T04:53:05;18.01;83.85
69546;SHT31;56766;52.260;20.746;2023-07-29T04:55:31;18.11;83.81
69546;SHT31;56766;52.260;20.746;2023-07-29T04:57:57;18.22;83.79
69546;SHT31;56766;52.260;20.746;2023-07-29T05:00:23;18.31;83.66
69546;SHT31;56766;52.260;20.746;2023-07-29T05:02:49;18.35;83.54
69546;SHT31;56766;52.260;20.746;2023-07-29T05:05:15;18.41;83.60
69546;SHT31;56766;52.260;20.746;2023-07-29T05:07:41;18.52;83.46
69546;SHT31;56766;52.260;20.746;2023-07-29T05:10:07;18.61;83.24
69546;SHT31;56766;52.260;20.746;2023-07-29T05:12:33;18.65;82.87
69546;SHT31;56766;52.260;20.746;2023-07-29T05:14:59;18.65;82.33
69546;SHT31;56766;52.260;20.746;2023-07-29T05:17:25;18.66;82.23
69546;SHT31;56766;52.260;20.746;2023-07-29T05:19:51;18.65;81.98
69546;SHT31;56766;52.260;20.746;2023-07-29T05:22:17;18.64;81.66
69546;SHT31;56766;52.260;20.746;2023-07-29T05:24:43;18.56;81.37
69546;SHT31;56766;52.260;20.746;2023-07-29T05:27:09;18.47;81.33
69546;SHT31;56766;52.260;20.746;2023-07-29T05:29:35;18.53;81.50
69546;SHT31;56766;52.260;20.746;2023-07-29T05:32:01;18.62;81.36
69546;SHT31;56766;52.260;20.746;2023-07-29T05:34:27;18.71;81.53
69546;SHT31;56766;52.260;20.746;2023-07-29T05:36:53;18.87;81.97
69546;SHT31;56766;52.260;20.746;2023-07-29T05:39:19;19.06;81.95
69546;SHT31;56766;52.260;20.746;2023-07-29T05:41:45;19.21;81.90
69546;SHT31;56766;52.260;20.746;2023-07-29T05:44:12;19.33;81.86
69546;SHT31;56766;52.260;20.746;2023-07-29T05:46:38;19.45;81.80
69546;SHT31;56766;52.260;20.746;2023-07-29T05:49:04;19.58;81.65
69546;SHT31;56766;52.260;20.746;2023-07-29T05:51:30;19.65;81.41
69546;SHT31;56766;52.260;20.746;2023-07-29T05:53:55;19.74;81.50
69546;SHT31;56766;52.260;20.746;2023-07-29T05:56:21;19.82;81.22
69546;SHT31;56766;52.260;20.746;2023-07-29T05:58:47;19.84;81.01
69546;SHT31;56766;52.260;20.746;2023-07-29T06:01:13;19.86;81.01
69546;SHT31;56766;52.260;20.746;2023-07-29T06:03:39;19.93;80.72
69546;SHT31;56766;52.260;20.746;2023-07-29T06:06:05;19.95;80.76
69546;SHT31;56766;52.260;20.746;2023-07-29T06:08:31;20.01;80.68
69546;SHT31;56766;52.260;20.746;2023-07-29T06:11:00;20.07;80.59
69546;SHT31;56766;52.260;20.746;2023-07-29T06:13:26;20.13;80.39
69546;SHT31;56766;52.260;20.746;2023-07-29T06:15:52;20.16;80.33
69546;SHT31;56766;52.260;20.746;2023-07-29T06:18:18;20.22;80.19
69546;SHT31;56766;52.260;20.746;2023-07-29T06:20:44;20.24;79.97
69546;SHT31;56766;52.260;20.746;2023-07-29T06:23:10;20.26;79.83
69546;SHT31;56766;52.260;20.746;2023-07-29T06:25:36;20.25;79.84
69546;SHT31;56766;52.260;20.746;2023-07-29T06:28:02;20.23;79.81
69546;SHT31;56766;52.260;20.746;2023-07-29T06:30:28;20.27;79.77
69546;SHT31;56766;52.260;20.746;2023-07-29T06:32:54;20.42;79.94
69546;SHT31;56766;52.260;20.746;2023-07-29T06:35:20;20.59;79.75
69546;SHT31;56766;52.260;20.746;2023-07-29T06:37:46;20.69;78.98
69546;SHT31;56766;52.260;20.746;2023-07-29T06:40:12;20.70;78.28
69546;SHT31;56766;52.260;20.746;2023-07-29T06:42:38;20.72;78.23
69546;SHT31;56766;52.260;20.746;2023-07-29T06:45:05;20.80;78.69
69546;SHT31;56766;52.260;20.746;2023-07-29T06:47:32;20.92;78.74
69546;SHT31;56766;52.260;20.746;2023-07-29T06:49:58;21.10;78.58
69546;SHT31;56766;52.260;20.746;2023-07-29T06:52:24;21.26;78.33
69546;SHT31;56766;52.260;20.746;2023-07-29T06:54:50;21.42;77.94
69546;SHT31;56766;52.260;20.746;2023-07-29T06:57:16;21.55;76.66
69546;SHT31;56766;52.260;20.746;2023-07-29T06:59:42;21.69;76.81
69546;SHT31;56766;52.260;20.746;2023-07-29T07:02:08;21.85;76.68
69546;SHT31;56766;52.260;20.746;2023-07-29T07:04:34;21.92;76.73
69546;SHT31;56766;52.260;20.746;2023-07-29T07:07:00;21.99;75.99
69546;SHT31;56766;52.260;20.746;2023-07-29T07:09:26;22.08;76.21
69546;SHT31;56766;52.260;20.746;2023-07-29T07:11:52;22.29;76.11
69546;SHT31;56766;52.260;20.746;2023-07-29T07:14:18;22.53;75.94
69546;SHT31;56766;52.260;20.746;2023-07-29T07:16:44;22.89;75.59
69546;SHT31;56766;52.260;20.746;2023-07-29T07:19:10;23.09;75.06
69546;SHT31;56766;52.260;20.746;2023-07-29T07:21:36;23.17;74.06
69546;SHT31;56766;52.260;20.746;2023-07-29T07:24:02;23.28;74.63
69546;SHT31;56766;52.260;20.746;2023-07-29T07:26:29;23.61;74.03
69546;SHT31;56766;52.260;20.746;2023-07-29T07:28:57;23.98;73.20
69546;SHT31;56766;52.260;20.746;2023-07-29T07:31:23;24.21;72.18
69546;SHT31;56766;52.260;20.746;2023-07-29T07:33:49;24.41;72.11
69546;SHT31;56766;52.260;20.746;2023-07-29T07:36:15;24.68;71.79
69546;SHT31;56766;52.260;20.746;2023-07-29T07:38:41;24.91;71.30
69546;SHT31;56766;52.260;20.746;2023-07-29T07:41:07;25.18;70.70
69546;SHT31;56766;52.260;20.746;2023-07-29T07:43:33;25.43;70.67
69546;SHT31;56766;52.260;20.746;2023-07-29T07:46:00;25.66;70.14
69546;SHT31;56766;52.260;20.746;2023-07-29T07:48:28;25.69;68.95
69546;SHT31;56766;52.260;20.746;2023-07-29T07:50:55;25.49;67.95
69546;SHT31;56766;52.260;20.746;2023-07-29T07:53:23;25.28;68.09
69546;SHT31;56766;52.260;20.746;2023-07-29T07:55:51;25.00;68.00
69546;SHT31;56766;52.260;20.746;2023-07-29T07:58:17;24.84;68.40
69546;SHT31;56766;52.260;20.746;2023-07-29T08:00:43;24.77;67.72
69546;SHT31;56766;52.260;20.746;2023-07-29T08:03:09;24.52;67.74
69546;SHT31;56766;52.260;20.746;2023-07-29T08:05:35;24.21;68.07
69546;SHT31;56766;52.260;20.746;2023-07-29T08:08:01;23.97;67.92
69546;SHT31;56766;52.260;20.746;2023-07-29T08:10:28;23.86;68.67
69546;SHT31;56766;52.260;20.746;2023-07-29T08:12:54;23.86;68.64
69546;SHT31;56766;52.260;20.746;2023-07-29T08:15:20;24.00;69.04
69546;SHT31;56766;52.260;20.746;2023-07-29T08:17:45;24.16;68.57
69546;SHT31;56766;52.260;20.746;2023-07-29T08:20:11;24.25;68.62
69546;SHT31;56766;52.260;20.746;2023-07-29T08:22:37;24.25;67.62
69546;SHT31;56766;52.260;20.746;2023-07-29T08:25:04;24.26;68.10
69546;SHT31;56766;52.260;20.746;2023-07-29T08:27:30;24.43;68.58
69546;SHT31;56766;52.260;20.746;2023-07-29T08:29:56;24.60;68.73
69546;SHT31;56766;52.260;20.746;2023-07-29T08:32:22;24.75;68.12
69546;SHT31;56766;52.260;20.746;2023-07-29T08:34:48;24.79;67.01
69546;SHT31;56766;52.260;20.746;2023-07-29T08:37:14;24.86;66.95
69546;SHT31;56766;52.260;20.746;2023-07-29T08:39:40;24.92;66.43
69546;SHT31;56766;52.260;20.746;2023-07-29T08:42:11;25.05;66.79
69546;SHT31;56766;52.260;20.746;2023-07-29T08:44:42;25.10;65.98
69546;SHT31;56766;52.260;20.746;2023-07-29T08:47:09;25.23;65.95
69546;SHT31;56766;52.260;20.746;2023-07-29T08:49:38;25.38;65.43
69546;SHT31;56766;52.260;20.746;2023-07-29T08:52:07;25.56;65.62
69546;SHT31;56766;52.260;20.746;2023-07-29T08:54:35;25.82;65.20
69546;SHT31;56766;52.260;20.746;2023-07-29T08:57:01;26.02;64.94
69546;SHT31;56766;52.260;20.746;2023-07-29T08:59:28;26.24;65.23
69546;SHT31;56766;52.260;20.746;2023-07-29T09:01:54;26.50;63.59
69546;SHT31;56766;52.260;20.746;2023-07-29T09:04:23;26.56;59.98
69546;SHT31;56766;52.260;20.746;2023-07-29T09:06:50;26.39;60.64
69546;SHT31;56766;52.260;20.746;2023-07-29T09:09:17;26.17;62.48
69546;SHT31;56766;52.260;20.746;2023-07-29T09:11:43;26.09;63.07
69546;SHT31;56766;52.260;20.746;2023-07-29T09:14:10;26.11;63.14
69546;SHT31;56766;52.260;20.746;2023-07-29T09:16:37;26.02;62.55
69546;SHT31;56766;52.260;20.746;2023-07-29T09:19:03;26.27;62.91
69546;SHT31;56766;52.260;20.746;2023-07-29T09:21:29;26.58;61.09
69546;SHT31;56766;52.260;20.746;2023-07-29T09:23:56;26.75;59.28
69546;SHT31;56766;52.260;20.746;2023-07-29T09:26:24;26.94;58.67
69546;SHT31;56766;52.260;20.746;2023-07-29T09:28:56;27.17;59.95
69546;SHT31;56766;52.260;20.746;2023-07-29T09:31:26;27.38;57.45
69546;SHT31;56766;52.260;20.746;2023-07-29T09:34:01;27.42;55.93
69546;SHT31;56766;52.260;20.746;2023-07-29T09:36:31;27.59;57.54
69546;SHT31;56766;52.260;20.746;2023-07-29T09:38:58;27.84;56.99
69546;SHT31;56766;52.260;20.746;2023-07-29T09:41:27;28.02;55.59
69546;SHT31;56766;52.260;20.746;2023-07-29T09:43:59;28.11;55.71
69546;SHT31;56766;52.260;20.746;2023-07-29T09:46:37;28.20;57.02
69546;SHT31;56766;52.260;20.746;2023-07-29T09:49:04;28.27;54.49
69546;SHT31;56766;52.260;20.746;2023-07-29T09:51:37;28.28;54.33
69546;SHT31;56766;52.260;20.746;2023-07-29T09:54:04;28.34;55.07
69546;SHT31;56766;52.260;20.746;2023-07-29T09:56:31;28.34;53.96
69546;SHT31;56766;52.260;20.746;2023-07-29T09:58:57;28.30;53.27
69546;SHT31;56766;52.260;20.746;2023-07-29T10:01:24;28.39;54.28
69546;SHT31;56766;52.260;20.746;2023-07-29T10:03:50;28.63;54.90
69546;SHT31;56766;52.260;20.746;2023-07-29T10:06:18;28.89;53.58
69546;SHT31;56766;52.260;20.746;2023-07-29T10:08:45;29.02;52.84
69546;SHT31;56766;52.260;20.746;2023-07-29T10:11:11;28.82;51.44
69546;SHT31;56766;52.260;20.746;2023-07-29T10:13:38;28.40;49.96
69546;SHT31;56766;52.260;20.746;2023-07-29T10:16:05;28.09;51.64
69546;SHT31;56766;52.260;20.746;2023-07-29T10:18:33;28.09;51.12
69546;SHT31;56766;52.260;20.746;2023-07-29T10:21:01;28.21;51.42
69546;SHT31;56766;52.260;20.746;2023-07-29T10:23:33;28.45;51.86
69546;SHT31;56766;52.260;20.746;2023-07-29T10:26:07;28.72;52.61
69546;SHT31;56766;52.260;20.746;2023-07-29T10:28:40;28.81;50.12
69546;SHT31;56766;52.260;20.746;2023-07-29T10:31:12;28.58;49.17
69546;SHT31;56766;52.260;20.746;2023-07-29T10:33:41;28.42;49.27
69546;SHT31;56766;52.260;20.746;2023-07-29T10:36:08;28.49;49.92
69546;SHT31;56766;52.260;20.746;2023-07-29T10:38:35;28.58;49.05
69546;SHT31;56766;52.260;20.746;2023-07-29T10:41:01;28.60;49.16
69546;SHT31;56766;52.260;20.746;2023-07-29T10:43:35;28.25;49.71
69546;SHT31;56766;52.260;20.746;2023-07-29T10:46:17;27.81;51.75
69546;SHT31;56766;52.260;20.746;2023-07-29T10:48:54;27.69;51.03
69546;SHT31;56766;52.260;20.746;2023-07-29T10:51:34;27.81;49.32
69546;SHT31;56766;52.260;20.746;2023-07-29T10:54:09;27.80;49.33
69546;SHT31;56766;52.260;20.746;2023-07-29T10:56:42;27.60;49.64
69546;SHT31;56766;52.260;20.746;2023-07-29T11:01:39;27.61;52.49
69546;SHT31;56766;52.260;20.746;2023-07-29T11:09:40;28.56;51.86
69546;SHT31;56766;52.260;20.746;2023-07-29T11:12:44;28.71;49.54
69546;SHT31;56766;52.260;20.746;2023-07-29T11:15:21;28.80;49.47
69546;SHT31;56766;52.260;20.746;2023-07-29T11:17:49;28.91;48.42
69546;SHT31;56766;52.260;20.746;2023-07-29T11:20:19;29.05;48.71
69546;SHT31;56766;52.260;20.746;2023-07-29T11:22:50;29.04;49.32
69546;SHT31;56766;52.260;20.746;2023-07-29T11:25:18;29.23;51.01
69546;SHT31;56766;52.260;20.746;2023-07-29T11:27:45;29.53;50.41
69546;SHT31;56766;52.260;20.746;2023-07-29T11:30:14;29.61;47.18
69546;SHT31;56766;52.260;20.746;2023-07-29T11:32:43;29.43;46.73
69546;SHT31;56766;52.260;20.746;2023-07-29T11:35:15;29.33;47.64
69546;SHT31;56766;52.260;20.746;2023-07-29T11:37:48;29.46;48.48
69546;SHT31;56766;52.260;20.746;2023-07-29T11:40:16;29.63;48.20
69546;SHT31;56766;52.260;20.746;2023-07-29T11:42:45;29.77;49.41
69546;SHT31;56766;52.260;20.746;2023-07-29T11:45:13;30.01;49.05
69546;SHT31;56766;52.260;20.746;2023-07-29T11:47:40;30.22;49.44
69546;SHT31;56766;52.260;20.746;2023-07-29T11:50:10;30.43;48.93
69546;SHT31;56766;52.260;20.746;2023-07-29T11:52:41;30.52;47.21
69546;SHT31;56766;52.260;20.746;2023-07-29T11:55:09;30.57;48.23
69546;SHT31;56766;52.260;20.746;2023-07-29T11:57:37;30.79;47.17
69546;SHT31;56766;52.260;20.746;2023-07-29T12:00:06;30.93;47.14
69546;SHT31;56766;52.260;20.746;2023-07-29T12:02:37;30.97;45.78
69546;SHT31;56766;52.260;20.746;2023-07-29T12:05:06;30.88;45.88
69546;SHT31;56766;52.260;20.746;2023-07-29T12:07:34;30.87;46.12
69546;SHT31;56766;52.260;20.746;2023-07-29T12:10:02;30.87;45.84
69546;SHT31;56766;52.260;20.746;2023-07-29T12:12:29;30.90;45.36
69546;SHT31;56766;52.260;20.746;2023-07-29T12:14:56;30.97;45.59
69546;SHT31;56766;52.260;20.746;2023-07-29T12:17:22;31.01;43.78
69546;SHT31;56766;52.260;20.746;2023-07-29T12:19:48;30.83;43.72
69546;SHT31;56766;52.260;20.746;2023-07-29T12:22:18;30.86;44.87
69546;SHT31;56766;52.260;20.746;2023-07-29T12:24:45;31.01;45.65
69546;SHT31;56766;52.260;20.746;2023-07-29T12:27:13;31.20;45.71
69546;SHT31;56766;52.260;20.746;2023-07-29T12:29:42;31.31;45.60
69546;SHT31;56766;52.260;20.746;2023-07-29T12:32:09;31.36;45.45
69546;SHT31;56766;52.260;20.746;2023-07-29T12:34:38;31.41;45.60
69546;SHT31;56766;52.260;20.746;2023-07-29T12:37:07;31.51;45.43
69546;SHT31;56766;52.260;20.746;2023-07-29T12:39:35;31.48;46.13
69546;SHT31;56766;52.260;20.746;2023-07-29T12:42:07;31.39;45.81
69546;SHT31;56766;52.260;20.746;2023-07-29T12:44:35;31.28;45.40
69546;SHT31;56766;52.260;20.746;2023-07-29T12:47:05;31.06;45.76
69546;SHT31;56766;52.260;20.746;2023-07-29T12:49:32;30.69;46.03
69546;SHT31;56766;52.260;20.746;2023-07-29T12:52:01;30.41;45.17
69546;SHT31;56766;52.260;20.746;2023-07-29T12:54:27;30.37;44.56
69546;SHT31;56766;52.260;20.746;2023-07-29T12:56:53;30.40;43.42
69546;SHT31;56766;52.260;20.746;2023-07-29T12:59:19;30.37;43.59
69546;SHT31;56766;52.260;20.746;2023-07-29T13:01:45;30.40;44.01
69546;SHT31;56766;52.260;20.746;2023-07-29T13:04:12;30.49;44.40
69546;SHT31;56766;52.260;20.746;2023-07-29T13:06:38;30.61;44.71
69546;SHT31;56766;52.260;20.746;2023-07-29T13:09:04;30.75;44.27
69546;SHT31;56766;52.260;20.746;2023-07-29T13:11:31;30.69;44.91
69546;SHT31;56766;52.260;20.746;2023-07-29T13:13:58;30.81;45.46
69546;SHT31;56766;52.260;20.746;2023-07-29T13:16:24;30.97;44.95
69546;SHT31;56766;52.260;20.746;2023-07-29T13:18:51;30.95;45.27
69546;SHT31;56766;52.260;20.746;2023-07-29T13:21:17;30.81;45.13
69546;SHT31;56766;52.260;20.746;2023-07-29T13:23:43;30.63;44.91
69546;SHT31;56766;52.260;20.746;2023-07-29T13:26:09;30.41;45.40
69546;SHT31;56766;52.260;20.746;2023-07-29T13:28:35;30.24;45.37
69546;SHT31;56766;52.260;20.746;2023-07-29T13:31:01;30.03;45.47
69546;SHT31;56766;52.260;20.746;2023-07-29T13:33:27;29.93;45.74
69546;SHT31;56766;52.260;20.746;2023-07-29T13:35:53;29.97;45.54
69546;SHT31;56766;52.260;20.746;2023-07-29T13:38:18;30.13;44.57
69546;SHT31;56766;52.260;20.746;2023-07-29T13:40:45;30.17;44.55
69546;SHT31;56766;52.260;20.746;2023-07-29T13:43:13;30.28;45.53
69546;SHT31;56766;52.260;20.746;2023-07-29T13:45:39;30.57;45.51
69546;SHT31;56766;52.260;20.746;2023-07-29T13:48:06;30.72;43.40
69546;SHT31;56766;52.260;20.746;2023-07-29T13:50:32;30.67;44.49
69546;SHT31;56766;52.260;20.746;2023-07-29T13:52:58;30.69;44.39
69546;SHT31;56766;52.260;20.746;2023-07-29T13:55:24;30.51;43.36
69546;SHT31;56766;52.260;20.746;2023-07-29T13:57:50;30.32;43.50
69546;SHT31;56766;52.260;20.746;2023-07-29T14:00:16;30.16;43.89
69546;SHT31;56766;52.260;20.746;2023-07-29T14:02:42;30.06;43.67
69546;SHT31;56766;52.260;20.746;2023-07-29T14:05:09;29.90;44.23
69546;SHT31;56766;52.260;20.746;2023-07-29T14:07:37;29.87;45.14
69546;SHT31;56766;52.260;20.746;2023-07-29T14:10:03;29.97;45.41
69546;SHT31;56766;52.260;20.746;2023-07-29T14:12:30;30.10;45.52
69546;SHT31;56766;52.260;20.746;2023-07-29T14:14:56;30.21;44.69
69546;SHT31;56766;52.260;20.746;2023-07-29T14:17:22;30.31;45.44
69546;SHT31;56766;52.260;20.746;2023-07-29T14:19:48;30.43;45.40
69546;SHT31;56766;52.260;20.746;2023-07-29T14:22:14;30.50;45.21
69546;SHT31;56766;52.260;20.746;2023-07-29T14:24:40;30.54;45.32
69546;SHT31;56766;52.260;20.746;2023-07-29T14:27:06;30.60;44.53
69546;SHT31;56766;52.260;20.746;2023-07-29T14:29:32;30.57;43.55
69546;SHT31;56766;52.260;20.746;2023-07-29T14:31:58;30.58;44.37
69546;SHT31;56766;52.260;20.746;2023-07-29T14:34:24;30.68;44.18
69546;SHT31;56766;52.260;20.746;2023-07-29T14:36:50;30.71;43.43
69546;SHT31;56766;52.260;20.746;2023-07-29T14:39:16;30.70;43.60
69546;SHT31;56766;52.260;20.746;2023-07-29T14:41:42;30.74;43.60
69546;SHT31;56766;52.260;20.746;2023-07-29T14:44:08;30.72;42.55
69546;SHT31;56766;52.260;20.746;2023-07-29T14:46:34;30.70;43.16
69546;SHT31;56766;52.260;20.746;2023-07-29T14:49:00;30.71;43.01
69546;SHT31;56766;52.260;20.746;2023-07-29T14:51:26;30.61;42.37
69546;SHT31;56766;52.260;20.746;2023-07-29T14:53:52;30.43;42.61
69546;SHT31;56766;52.260;20.746;2023-07-29T14:56:18;30.30;43.01
69546;SHT31;56766;52.260;20.746;2023-07-29T14:58:45;30.27;44.03
69546;SHT31;56766;52.260;20.746;2023-07-29T15:01:11;30.33;43.96
69546;SHT31;56766;52.260;20.746;2023-07-29T15:03:37;30.30;43.11
69546;SHT31;56766;52.260;20.746;2023-07-29T15:06:03;30.16;43.52
69546;SHT31;56766;52.260;20.746;2023-07-29T15:08:29;30.18;44.21
69546;SHT31;56766;52.260;20.746;2023-07-29T15:10:55;30.18;43.63
69546;SHT31;56766;52.260;20.746;2023-07-29T15:13:21;30.07;43.64
69546;SHT31;56766;52.260;20.746;2023-07-29T15:15:47;29.97;44.92
69546;SHT31;56766;52.260;20.746;2023-07-29T15:18:16;29.83;45.20
69546;SHT31;56766;52.260;20.746;2023-07-29T15:20:42;29.69;45.78
69546;SHT31;56766;52.260;20.746;2023-07-29T15:23:07;29.67;45.96
69546;SHT31;56766;52.260;20.746;2023-07-29T15:25:33;29.71;45.82
69546;SHT31;56766;52.260;20.746;2023-07-29T15:27:59;29.79;45.88
69546;SHT31;56766;52.260;20.746;2023-07-29T15:30:25;29.87;46.04